CheckWX is a tool to help pilots better visualize weather data.  It is not intended as a substitute for an official pre-flight weather briefing.

10:06:50 UTC

KCHO METAR
Charlottesville-Albemarle Airport
Charlottesville, Virginia, USA
Current

14 mins ago

KCHO 250953Z AUTO 20006KT 6SM -RA BR BKN005 BKN015 OVC060 08/07 A2983 RMK AO2 SLP099 P0003 T00830067
Observed
Feb-25 @ 09:53 UTC
Wind
  • 200° at 6 KTS
Visibility
6 SM
Flight Rules
IFR
Conditions
Light Rain, Mist
Cloud Levels
  • Broken at 500' AGL
  • Broken at 1,500' AGL
  • Overcast at 6,000' AGL
Temperature
C / 46°F
Dewpoint
C / 45°F
Humidity
93%
Altimeter
29.83" Hg
Pressure
1010.12 hPa
Current Rain
0.03"
Previous

1 hour ago

KCHO 250853Z AUTO 20006KT 7SM -RA OVC006 08/06 A2984 RMK AO2 RAB33 SLP103 P0000 60000 T00830061 58008
Observed
Feb-25 @ 08:53 UTC
Wind
  • 200° at 6 KTS
Visibility
7 SM
Flight Rules
IFR
Conditions
Light Rain
Cloud Levels
  • Overcast at 600' AGL
Temperature
C / 46°F
Dewpoint
C / 43°F
Humidity
87%
Altimeter
29.84" Hg
Pressure
1010.52 hPa
Current Rain
0.01"
Previous

2 hours ago

KCHO 250753Z AUTO 20007KT 10SM OVC006 08/06 A2986 RMK AO2 SLP109 T00830061
Observed
Feb-25 @ 07:53 UTC
Wind
  • 200° at 7 KTS
Visibility
10 SM
Flight Rules
IFR
Cloud Levels
  • Overcast at 600' AGL
Temperature
C / 46°F
Dewpoint
C / 43°F
Humidity
87%
Altimeter
29.86" Hg
Pressure
1011.22 hPa